sensor_id;sensor_type;location;lat;lon;timestamp;temperature;humidity
36442;DHT22;64346;50.820;16.274;2022-10-16T00:01:26;14.60;99.90
36442;DHT22;64346;50.820;16.274;2022-10-16T00:03:55;14.60;99.90
36442;DHT22;64346;50.820;16.274;2022-10-16T00:06:23;14.60;99.90
36442;DHT22;64346;50.820;16.274;2022-10-16T00:08:51;14.60;99.90
36442;DHT22;64346;50.820;16.274;2022-10-16T00:11:28;14.60;99.90
36442;DHT22;64346;50.820;16.274;2022-10-16T00:13:59;14.60;99.90
36442;DHT22;64346;50.820;16.274;2022-10-16T00:16:27;14.60;99.90
36442;DHT22;64346;50.820;16.274;2022-10-16T00:18:55;14.60;99.90
36442;DHT22;64346;50.820;16.274;2022-10-16T00:21:26;14.60;99.90
36442;DHT22;64346;50.820;16.274;2022-10-16T00:23:55;14.60;99.90
36442;DHT22;64346;50.820;16.274;2022-10-16T00:26:23;14.60;99.90
36442;DHT22;64346;50.820;16.274;2022-10-16T00:28:51;14.60;99.90
36442;DHT22;64346;50.820;16.274;2022-10-16T00:31:22;14.60;99.90
36442;DHT22;64346;50.820;16.274;2022-10-16T00:33:50;14.60;99.90
36442;DHT22;64346;50.820;16.274;2022-10-16T00:36:20;14.60;99.90
36442;DHT22;64346;50.820;16.274;2022-10-16T00:38:51;14.60;99.90
36442;DHT22;64346;50.820;16.274;2022-10-16T00:41:21;14.60;99.90
36442;DHT22;64346;50.820;16.274;2022-10-16T00:43:56;14.60;99.90
36442;DHT22;64346;50.820;16.274;2022-10-16T00:49:10;14.60;99.90
36442;DHT22;64346;50.820;16.274;2022-10-16T00:54:19;14.70;99.90
36442;DHT22;64346;50.820;16.274;2022-10-16T00:56:48;14.70;99.90
36442;DHT22;64346;50.820;16.274;2022-10-16T00:59:20;14.70;99.90
36442;DHT22;64346;50.820;16.274;2022-10-16T01:01:51;14.80;99.90
36442;DHT22;64346;50.820;16.274;2022-10-16T01:04:19;14.80;99.90
36442;DHT22;64346;50.820;16.274;2022-10-16T01:09:47;14.70;99.90
36442;DHT22;64346;50.820;16.274;2022-10-16T01:21:02;14.60;99.90
36442;DHT22;64346;50.820;16.274;2022-10-16T01:29:24;14.50;99.90
36442;DHT22;64346;50.820;16.274;2022-10-16T01:32:02;14.40;99.90
36442;DHT22;64346;50.820;16.274;2022-10-16T01:34:41;14.40;99.90
36442;DHT22;64346;50.820;16.274;2022-10-16T01:37:15;14.40;99.90
36442;DHT22;64346;50.820;16.274;2022-10-16T01:39:45;14.40;99.90
36442;DHT22;64346;50.820;16.274;2022-10-16T01:42:19;14.30;99.90
36442;DHT22;64346;50.820;16.274;2022-10-16T01:44:47;14.30;99.90
36442;DHT22;64346;50.820;16.274;2022-10-16T01:47:17;14.30;99.90
36442;DHT22;64346;50.820;16.274;2022-10-16T01:49:45;14.30;99.90
36442;DHT22;64346;50.820;16.274;2022-10-16T01:52:18;14.30;99.90
36442;DHT22;64346;50.820;16.274;2022-10-16T01:54:49;14.30;99.90
36442;DHT22;64346;50.820;16.274;2022-10-16T01:57:17;14.30;99.90
36442;DHT22;64346;50.820;16.274;2022-10-16T01:59:51;14.30;99.90
36442;DHT22;64346;50.820;16.274;2022-10-16T02:02:29;14.30;99.90
36442;DHT22;64346;50.820;16.274;2022-10-16T02:07:42;14.20;99.90
36442;DHT22;64346;50.820;16.274;2022-10-16T02:10:09;14.20;99.90
36442;DHT22;64346;50.820;16.274;2022-10-16T02:12:41;14.20;99.90
36442;DHT22;64346;50.820;16.274;2022-10-16T02:15:14;14.10;99.90
36442;DHT22;64346;50.820;16.274;2022-10-16T02:17:44;14.10;99.90
36442;DHT22;64346;50.820;16.274;2022-10-16T02:20:11;14.10;99.90
36442;DHT22;64346;50.820;16.274;2022-10-16T02:22:47;14.10;99.90
36442;DHT22;64346;50.820;16.274;2022-10-16T02:25:32;14.10;99.90
36442;DHT22;64346;50.820;16.274;2022-10-16T02:28:12;14.10;99.90
36442;DHT22;64346;50.820;16.274;2022-10-16T02:33:13;14.10;99.90
36442;DHT22;64346;50.820;16.274;2022-10-16T02:35:43;14.10;99.90
36442;DHT22;64346;50.820;16.274;2022-10-16T02:38:15;14.10;99.90
36442;DHT22;64346;50.820;16.274;2022-10-16T02:40:43;14.20;99.90
36442;DHT22;64346;50.820;16.274;2022-10-16T02:43:10;14.30;99.90
36442;DHT22;64346;50.820;16.274;2022-10-16T02:45:40;14.40;99.90
36442;DHT22;64346;50.820;16.274;2022-10-16T02:48:08;14.40;99.90
36442;DHT22;64346;50.820;16.274;2022-10-16T02:50:36;14.40;99.90
36442;DHT22;64346;50.820;16.274;2022-10-16T02:53:03;14.40;99.90
36442;DHT22;64346;50.820;16.274;2022-10-16T02:55:34;14.40;99.90
36442;DHT22;64346;50.820;16.274;2022-10-16T02:58:01;14.40;99.90
36442;DHT22;64346;50.820;16.274;2022-10-16T03:00:28;14.40;99.90
36442;DHT22;64346;50.820;16.274;2022-10-16T03:02:55;14.40;99.90
36442;DHT22;64346;50.820;16.274;2022-10-16T03:05:25;14.40;99.90
36442;DHT22;64346;50.820;16.274;2022-10-16T03:07:55;14.30;99.90
36442;DHT22;64346;50.820;16.274;2022-10-16T03:10:22;14.30;99.90
36442;DHT22;64346;50.820;16.274;2022-10-16T03:12:50;14.40;99.90
36442;DHT22;64346;50.820;16.274;2022-10-16T03:15:20;14.30;99.90
36442;DHT22;64346;50.820;16.274;2022-10-16T03:17:49;14.30;99.90
36442;DHT22;64346;50.820;16.274;2022-10-16T03:20:19;14.30;99.90
36442;DHT22;64346;50.820;16.274;2022-10-16T03:22:46;14.30;99.90
36442;DHT22;64346;50.820;16.274;2022-10-16T03:25:16;14.40;99.90
36442;DHT22;64346;50.820;16.274;2022-10-16T03:27:46;14.30;99.90
36442;DHT22;64346;50.820;16.274;2022-10-16T03:30:16;14.30;99.90
36442;DHT22;64346;50.820;16.274;2022-10-16T03:32:46;14.30;99.90
36442;DHT22;64346;50.820;16.274;2022-10-16T03:35:14;14.30;99.90
36442;DHT22;64346;50.820;16.274;2022-10-16T03:37:41;14.30;99.90
36442;DHT22;64346;50.820;16.274;2022-10-16T03:40:08;14.30;99.90
36442;DHT22;64346;50.820;16.274;2022-10-16T03:42:39;14.30;99.90
36442;DHT22;64346;50.820;16.274;2022-10-16T03:45:06;14.30;99.90
36442;DHT22;64346;50.820;16.274;2022-10-16T03:47:33;14.30;99.90
36442;DHT22;64346;50.820;16.274;2022-10-16T03:50:02;14.40;99.90
36442;DHT22;64346;50.820;16.274;2022-10-16T03:52:29;14.40;99.90
36442;DHT22;64346;50.820;16.274;2022-10-16T03:54:57;14.50;99.90
36442;DHT22;64346;50.820;16.274;2022-10-16T03:57:24;14.60;99.90
36442;DHT22;64346;50.820;16.274;2022-10-16T03:59:52;14.80;99.90
36442;DHT22;64346;50.820;16.274;2022-10-16T04:02:21;14.90;99.90
36442;DHT22;64346;50.820;16.274;2022-10-16T04:04:49;15.00;99.90
36442;DHT22;64346;50.820;16.274;2022-10-16T04:07:16;15.00;99.90
36442;DHT22;64346;50.820;16.274;2022-10-16T04:09:46;15.00;99.90
36442;DHT22;64346;50.820;16.274;2022-10-16T04:12:13;15.00;99.90
36442;DHT22;64346;50.820;16.274;2022-10-16T04:14:40;15.00;99.90
36442;DHT22;64346;50.820;16.274;2022-10-16T04:17:07;14.90;99.90
36442;DHT22;64346;50.820;16.274;2022-10-16T04:19:35;14.90;99.90
36442;DHT22;64346;50.820;16.274;2022-10-16T04:22:02;14.90;99.90
36442;DHT22;64346;50.820;16.274;2022-10-16T04:24:32;14.80;99.90
36442;DHT22;64346;50.820;16.274;2022-10-16T04:27:02;14.80;99.90
36442;DHT22;64346;50.820;16.274;2022-10-16T04:29:29;14.80;99.90
36442;DHT22;64346;50.820;16.274;2022-10-16T04:31:56;14.70;99.90
36442;DHT22;64346;50.820;16.274;2022-10-16T04:34:24;14.70;99.90
36442;DHT22;64346;50.820;16.274;2022-10-16T04:36:51;14.70;99.90
36442;DHT22;64346;50.820;16.274;2022-10-16T04:39:18;14.70;99.90
36442;DHT22;64346;50.820;16.274;2022-10-16T04:41:46;14.70;99.90
36442;DHT22;64346;50.820;16.274;2022-10-16T04:44:13;14.60;99.90
36442;DHT22;64346;50.820;16.274;2022-10-16T04:46:40;14.60;99.90
36442;DHT22;64346;50.820;16.274;2022-10-16T04:49:08;14.60;99.90
36442;DHT22;64346;50.820;16.274;2022-10-16T04:51:37;14.60;99.90
36442;DHT22;64346;50.820;16.274;2022-10-16T04:54:05;14.60;99.90
36442;DHT22;64346;50.820;16.274;2022-10-16T04:56:35;14.60;99.90
36442;DHT22;64346;50.820;16.274;2022-10-16T04:59:05;14.60;99.90
36442;DHT22;64346;50.820;16.274;2022-10-16T05:01:32;14.60;99.90
36442;DHT22;64346;50.820;16.274;2022-10-16T05:04:00;14.60;99.90
36442;DHT22;64346;50.820;16.274;2022-10-16T05:06:32;14.60;99.90
36442;DHT22;64346;50.820;16.274;2022-10-16T05:09:00;14.60;99.90
36442;DHT22;64346;50.820;16.274;2022-10-16T05:11:30;14.60;99.90
36442;DHT22;64346;50.820;16.274;2022-10-16T05:14:00;14.60;99.90
36442;DHT22;64346;50.820;16.274;2022-10-16T05:16:29;14.60;99.90
36442;DHT22;64346;50.820;16.274;2022-10-16T05:19:01;14.60;99.90
36442;DHT22;64346;50.820;16.274;2022-10-16T05:21:51;14.60;99.90
36442;DHT22;64346;50.820;16.274;2022-10-16T05:24:18;14.60;99.90
36442;DHT22;64346;50.820;16.274;2022-10-16T05:26:45;14.60;99.90
36442;DHT22;64346;50.820;16.274;2022-10-16T05:29:13;14.60;99.90
36442;DHT22;64346;50.820;16.274;2022-10-16T05:31:40;14.60;99.90
36442;DHT22;64346;50.820;16.274;2022-10-16T05:34:08;14.60;99.90
36442;DHT22;64346;50.820;16.274;2022-10-16T05:36:35;14.60;99.90
36442;DHT22;64346;50.820;16.274;2022-10-16T05:39:03;14.60;99.90
36442;DHT22;64346;50.820;16.274;2022-10-16T05:41:30;14.60;99.90
36442;DHT22;64346;50.820;16.274;2022-10-16T05:43:57;14.60;99.90
36442;DHT22;64346;50.820;16.274;2022-10-16T05:46:25;14.60;99.90
36442;DHT22;64346;50.820;16.274;2022-10-16T05:48:52;14.70;99.90
36442;DHT22;64346;50.820;16.274;2022-10-16T05:51:19;14.70;99.90
36442;DHT22;64346;50.820;16.274;2022-10-16T05:53:47;14.80;99.90
36442;DHT22;64346;50.820;16.274;2022-10-16T05:56:14;14.80;99.90
36442;DHT22;64346;50.820;16.274;2022-10-16T05:58:42;14.80;99.90
36442;DHT22;64346;50.820;16.274;2022-10-16T06:01:12;14.80;99.90
36442;DHT22;64346;50.820;16.274;2022-10-16T06:03:41;14.90;99.90
36442;DHT22;64346;50.820;16.274;2022-10-16T06:06:12;14.90;99.90
36442;DHT22;64346;50.820;16.274;2022-10-16T06:08:40;14.90;99.90
36442;DHT22;64346;50.820;16.274;2022-10-16T06:11:13;14.90;99.90
36442;DHT22;64346;50.820;16.274;2022-10-16T06:13:41;15.00;99.90
36442;DHT22;64346;50.820;16.274;2022-10-16T06:16:11;15.00;99.90
36442;DHT22;64346;50.820;16.274;2022-10-16T06:18:39;15.00;99.90
36442;DHT22;64346;50.820;16.274;2022-10-16T06:21:08;15.00;99.90
36442;DHT22;64346;50.820;16.274;2022-10-16T06:23:36;15.00;99.90
36442;DHT22;64346;50.820;16.274;2022-10-16T06:26:15;15.00;99.90
36442;DHT22;64346;50.820;16.274;2022-10-16T06:28:45;15.00;99.90
36442;DHT22;64346;50.820;16.274;2022-10-16T06:31:15;15.10;99.90
36442;DHT22;64346;50.820;16.274;2022-10-16T06:33:42;15.10;99.90
36442;DHT22;64346;50.820;16.274;2022-10-16T06:36:13;15.10;99.90
36442;DHT22;64346;50.820;16.274;2022-10-16T06:38:41;15.20;99.90
36442;DHT22;64346;50.820;16.274;2022-10-16T06:41:12;15.20;99.90
36442;DHT22;64346;50.820;16.274;2022-10-16T06:43:40;15.20;99.90
36442;DHT22;64346;50.820;16.274;2022-10-16T06:46:10;15.20;99.90
36442;DHT22;64346;50.820;16.274;2022-10-16T06:48:38;15.20;99.90
36442;DHT22;64346;50.820;16.274;2022-10-16T06:51:14;15.30;99.90
36442;DHT22;64346;50.820;16.274;2022-10-16T06:53:44;15.40;99.90
36442;DHT22;64346;50.820;16.274;2022-10-16T06:56:32;15.40;99.90
36442;DHT22;64346;50.820;16.274;2022-10-16T06:59:00;15.40;99.90
36442;DHT22;64346;50.820;16.274;2022-10-16T07:01:28;15.40;99.90
36442;DHT22;64346;50.820;16.274;2022-10-16T07:03:56;15.40;99.90
36442;DHT22;64346;50.820;16.274;2022-10-16T07:06:26;15.40;99.90
36442;DHT22;64346;50.820;16.274;2022-10-16T07:08:56;15.40;99.90
36442;DHT22;64346;50.820;16.274;2022-10-16T07:11:23;15.40;99.90
36442;DHT22;64346;50.820;16.274;2022-10-16T07:13:51;15.40;99.90
36442;DHT22;64346;50.820;16.274;2022-10-16T07:16:24;15.30;99.90
36442;DHT22;64346;50.820;16.274;2022-10-16T07:18:54;15.20;99.90
36442;DHT22;64346;50.820;16.274;2022-10-16T07:21:22;15.20;99.90
36442;DHT22;64346;50.820;16.274;2022-10-16T07:23:57;15.20;99.90
36442;DHT22;64346;50.820;16.274;2022-10-16T07:26:25;15.20;99.90
36442;DHT22;64346;50.820;16.274;2022-10-16T07:28:53;15.20;99.90
36442;DHT22;64346;50.820;16.274;2022-10-16T07:31:21;15.20;99.90
36442;DHT22;64346;50.820;16.274;2022-10-16T07:33:49;15.30;99.90
36442;DHT22;64346;50.820;16.274;2022-10-16T07:36:20;15.30;99.90
36442;DHT22;64346;50.820;16.274;2022-10-16T07:38:48;15.40;99.90
36442;DHT22;64346;50.820;16.274;2022-10-16T07:41:21;15.50;99.90
36442;DHT22;64346;50.820;16.274;2022-10-16T07:43:50;15.60;99.90
36442;DHT22;64346;50.820;16.274;2022-10-16T07:46:19;15.60;99.90
36442;DHT22;64346;50.820;16.274;2022-10-16T07:48:47;15.70;99.90
36442;DHT22;64346;50.820;16.274;2022-10-16T07:51:16;15.80;99.90
36442;DHT22;64346;50.820;16.274;2022-10-16T07:53:44;16.10;99.90
36442;DHT22;64346;50.820;16.274;2022-10-16T07:56:12;16.30;99.90
36442;DHT22;64346;50.820;16.274;2022-10-16T07:58:40;16.70;99.90
36442;DHT22;64346;50.820;16.274;2022-10-16T08:01:10;16.90;99.90
36442;DHT22;64346;50.820;16.274;2022-10-16T08:03:37;17.00;99.90
36442;DHT22;64346;50.820;16.274;2022-10-16T08:06:05;16.90;99.90
36442;DHT22;64346;50.820;16.274;2022-10-16T08:08:32;16.90;99.90
36442;DHT22;64346;50.820;16.274;2022-10-16T08:11:00;16.80;99.90
36442;DHT22;64346;50.820;16.274;2022-10-16T08:13:27;16.80;99.90
36442;DHT22;64346;50.820;16.274;2022-10-16T08:15:57;16.80;99.90
36442;DHT22;64346;50.820;16.274;2022-10-16T08:18:25;16.70;99.90
36442;DHT22;64346;50.820;16.274;2022-10-16T08:20:59;16.70;99.90
36442;DHT22;64346;50.820;16.274;2022-10-16T08:23:30;16.70;99.90
36442;DHT22;64346;50.820;16.274;2022-10-16T08:26:02;16.70;99.90
36442;DHT22;64346;50.820;16.274;2022-10-16T08:28:34;16.90;99.90
36442;DHT22;64346;50.820;16.274;2022-10-16T08:31:20;16.90;99.90
36442;DHT22;64346;50.820;16.274;2022-10-16T08:33:48;16.90;99.90
36442;DHT22;64346;50.820;16.274;2022-10-16T08:36:16;17.00;99.90
36442;DHT22;64346;50.820;16.274;2022-10-16T08:38:44;17.10;99.90
36442;DHT22;64346;50.820;16.274;2022-10-16T08:44:40;17.50;99.90
36442;DHT22;64346;50.820;16.274;2022-10-16T08:47:19;17.80;99.90
36442;DHT22;64346;50.820;16.274;2022-10-16T08:50:09;18.00;99.90
36442;DHT22;64346;50.820;16.274;2022-10-16T08:52:40;18.40;99.90
36442;DHT22;64346;50.820;16.274;2022-10-16T08:55:38;18.60;99.90
36442;DHT22;64346;50.820;16.274;2022-10-16T08:58:16;18.60;99.90
36442;DHT22;64346;50.820;16.274;2022-10-16T09:00:51;18.50;99.90
36442;DHT22;64346;50.820;16.274;2022-10-16T09:06:40;18.20;99.90
36442;DHT22;64346;50.820;16.274;2022-10-16T09:17:59;18.40;99.90
36442;DHT22;64346;50.820;16.274;2022-10-16T09:23:17;19.40;99.90
36442;DHT22;64346;50.820;16.274;2022-10-16T09:25:49;19.60;99.90
36442;DHT22;64346;50.820;16.274;2022-10-16T09:28:17;19.80;99.90
36442;DHT22;64346;50.820;16.274;2022-10-16T09:30:46;19.70;99.90
36442;DHT22;64346;50.820;16.274;2022-10-16T09:33:14;20.50;99.90
36442;DHT22;64346;50.820;16.274;2022-10-16T09:35:47;24.70;99.90
36442;DHT22;64346;50.820;16.274;2022-10-16T09:38:29;30.10;97.90
36442;DHT22;64346;50.820;16.274;2022-10-16T09:41:00;34.70;83.10
36442;DHT22;64346;50.820;16.274;2022-10-16T09:43:42;35.30;72.50
36442;DHT22;64346;50.820;16.274;2022-10-16T09:48:56;31.80;72.20
36442;DHT22;64346;50.820;16.274;2022-10-16T09:51:33;31.80;73.50
36442;DHT22;64346;50.820;16.274;2022-10-16T09:56:31;35.00;68.40
36442;DHT22;64346;50.820;16.274;2022-10-16T09:59:02;34.20;67.40
36442;DHT22;64346;50.820;16.274;2022-10-16T10:01:48;31.40;70.40
36442;DHT22;64346;50.820;16.274;2022-10-16T10:04:16;28.90;74.80
36442;DHT22;64346;50.820;16.274;2022-10-16T10:19:51;23.10;93.10
36442;DHT22;64346;50.820;16.274;2022-10-16T10:22:40;25.10;91.50
36442;DHT22;64346;50.820;16.274;2022-10-16T10:33:24;26.30;85.50
36442;DHT22;64346;50.820;16.274;2022-10-16T10:39:00;24.90;90.50
36442;DHT22;64346;50.820;16.274;2022-10-16T10:41:44;24.50;90.80
36442;DHT22;64346;50.820;16.274;2022-10-16T11:03:57;24.60;91.40
36442;DHT22;64346;50.820;16.274;2022-10-16T11:06:42;23.80;92.30
36442;DHT22;64346;50.820;16.274;2022-10-16T11:09:19;22.60;94.30
36442;DHT22;64346;50.820;16.274;2022-10-16T11:12:05;21.60;96.40
36442;DHT22;64346;50.820;16.274;2022-10-16T11:15:00;21.30;98.20
36442;DHT22;64346;50.820;16.274;2022-10-16T11:17:35;21.10;99.40
36442;DHT22;64346;50.820;16.274;2022-10-16T11:25:43;20.00;99.90
36442;DHT22;64346;50.820;16.274;2022-10-16T11:28:34;19.80;99.90
36442;DHT22;64346;50.820;16.274;2022-10-16T11:34:06;19.70;99.90
36442;DHT22;64346;50.820;16.274;2022-10-16T11:36:45;19.70;99.90
36442;DHT22;64346;50.820;16.274;2022-10-16T11:39:27;19.80;99.90
36442;DHT22;64346;50.820;16.274;2022-10-16T11:47:30;19.70;99.90
36442;DHT22;64346;50.820;16.274;2022-10-16T11:50:42;19.70;99.90
36442;DHT22;64346;50.820;16.274;2022-10-16T11:55:49;19.50;99.90
36442;DHT22;64346;50.820;16.274;2022-10-16T11:58:46;19.40;99.90
36442;DHT22;64346;50.820;16.274;2022-10-16T12:04:02;19.10;99.90
36442;DHT22;64346;50.820;16.274;2022-10-16T12:06:37;19.00;99.90
36442;DHT22;64346;50.820;16.274;2022-10-16T12:09:34;19.00;99.90
36442;DHT22;64346;50.820;16.274;2022-10-16T12:11:59;18.80;99.90
36442;DHT22;64346;50.820;16.274;2022-10-16T12:14:37;18.70;99.90
36442;DHT22;64346;50.820;16.274;2022-10-16T12:17:36;18.70;99.90
36442;DHT22;64346;50.820;16.274;2022-10-16T12:22:50;18.80;99.90
36442;DHT22;64346;50.820;16.274;2022-10-16T12:25:32;19.00;99.90
36442;DHT22;64346;50.820;16.274;2022-10-16T12:28:05;19.00;99.90
36442;DHT22;64346;50.820;16.274;2022-10-16T12:30:34;19.00;99.90
36442;DHT22;64346;50.820;16.274;2022-10-16T12:33:05;19.10;99.90
36442;DHT22;64346;50.820;16.274;2022-10-16T12:35:34;19.10;99.90
36442;DHT22;64346;50.820;16.274;2022-10-16T12:38:19;19.10;99.90
36442;DHT22;64346;50.820;16.274;2022-10-16T12:41:07;19.10;99.90
36442;DHT22;64346;50.820;16.274;2022-10-16T12:43:45;19.20;99.90
36442;DHT22;64346;50.820;16.274;2022-10-16T12:48:42;19.20;99.90
36442;DHT22;64346;50.820;16.274;2022-10-16T12:54:37;19.30;99.90
36442;DHT22;64346;50.820;16.274;2022-10-16T13:00:22;19.40;99.90
36442;DHT22;64346;50.820;16.274;2022-10-16T13:20:36;20.00;99.90
36442;DHT22;64346;50.820;16.274;2022-10-16T13:28:37;20.40;99.90
36442;DHT22;64346;50.820;16.274;2022-10-16T13:31:20;20.50;99.90
36442;DHT22;64346;50.820;16.274;2022-10-16T13:33:57;20.60;99.90
36442;DHT22;64346;50.820;16.274;2022-10-16T13:36:33;20.50;99.90
36442;DHT22;64346;50.820;16.274;2022-10-16T13:39:14;20.40;99.90
36442;DHT22;64346;50.820;16.274;2022-10-16T13:41:42;20.30;99.90
36442;DHT22;64346;50.820;16.274;2022-10-16T13:44:19;20.10;99.90
36442;DHT22;64346;50.820;16.274;2022-10-16T13:46:59;19.90;99.90
36442;DHT22;64346;50.820;16.274;2022-10-16T13:49:26;19.80;99.90
36442;DHT22;64346;50.820;16.274;2022-10-16T13:51:59;19.70;99.90
36442;DHT22;64346;50.820;16.274;2022-10-16T13:54:30;19.70;99.90
36442;DHT22;64346;50.820;16.274;2022-10-16T13:57:05;19.60;99.90
36442;DHT22;64346;50.820;16.274;2022-10-16T13:59:53;19.60;99.90
36442;DHT22;64346;50.820;16.274;2022-10-16T14:02:33;19.60;99.90
36442;DHT22;64346;50.820;16.274;2022-10-16T14:05:03;19.60;99.90
36442;DHT22;64346;50.820;16.274;2022-10-16T14:07:33;19.60;99.90
36442;DHT22;64346;50.820;16.274;2022-10-16T14:10:06;19.60;99.90
36442;DHT22;64346;50.820;16.274;2022-10-16T14:12:35;19.70;99.90
36442;DHT22;64346;50.820;16.274;2022-10-16T14:15:02;19.70;99.90
36442;DHT22;64346;50.820;16.274;2022-10-16T14:17:32;19.70;99.90
36442;DHT22;64346;50.820;16.274;2022-10-16T14:20:03;19.70;99.90
36442;DHT22;64346;50.820;16.274;2022-10-16T14:22:37;19.70;99.90
36442;DHT22;64346;50.820;16.274;2022-10-16T14:28:13;19.60;99.90
36442;DHT22;64346;50.820;16.274;2022-10-16T14:30:56;19.50;99.90
36442;DHT22;64346;50.820;16.274;2022-10-16T14:36:17;19.40;99.90
36442;DHT22;64346;50.820;16.274;2022-10-16T14:41:29;19.30;99.90
36442;DHT22;64346;50.820;16.274;2022-10-16T14:44:02;19.30;99.90
36442;DHT22;64346;50.820;16.274;2022-10-16T14:46:36;19.20;99.90
36442;DHT22;64346;50.820;16.274;2022-10-16T14:51:41;19.10;99.90
36442;DHT22;64346;50.820;16.274;2022-10-16T14:54:09;19.00;99.90
36442;DHT22;64346;50.820;16.274;2022-10-16T14:56:49;19.00;99.90
36442;DHT22;64346;50.820;16.274;2022-10-16T15:02:16;18.80;99.90
36442;DHT22;64346;50.820;16.274;2022-10-16T15:04:43;18.80;99.90
36442;DHT22;64346;50.820;16.274;2022-10-16T15:07:11;18.70;99.90
36442;DHT22;64346;50.820;16.274;2022-10-16T15:09:41;18.70;99.90
36442;DHT22;64346;50.820;16.274;2022-10-16T15:12:16;18.60;99.90
36442;DHT22;64346;50.820;16.274;2022-10-16T15:14:43;18.60;99.90
36442;DHT22;64346;50.820;16.274;2022-10-16T15:17:11;18.50;99.90
36442;DHT22;64346;50.820;16.274;2022-10-16T15:19:38;18.50;99.90
36442;DHT22;64346;50.820;16.274;2022-10-16T15:22:05;18.50;99.90
36442;DHT22;64346;50.820;16.274;2022-10-16T15:24:33;18.50;99.90
36442;DHT22;64346;50.820;16.274;2022-10-16T15:27:00;18.50;99.90
36442;DHT22;64346;50.820;16.274;2022-10-16T15:29:27;18.50;99.90
36442;DHT22;64346;50.820;16.274;2022-10-16T15:31:54;18.50;99.90
36442;DHT22;64346;50.820;16.274;2022-10-16T15:34:22;18.50;99.90
36442;DHT22;64346;50.820;16.274;2022-10-16T15:36:49;18.40;99.90
36442;DHT22;64346;50.820;16.274;2022-10-16T15:39:18;18.40;99.90
36442;DHT22;64346;50.820;16.274;2022-10-16T15:41:47;18.30;99.90
36442;DHT22;64346;50.820;16.274;2022-10-16T15:44:17;18.30;99.90
36442;DHT22;64346;50.820;16.274;2022-10-16T15:46:46;18.30;99.90
36442;DHT22;64346;50.820;16.274;2022-10-16T15:49:15;18.20;99.90
36442;DHT22;64346;50.820;16.274;2022-10-16T15:51:42;18.20;99.90
36442;DHT22;64346;50.820;16.274;2022-10-16T15:54:10;18.10;99.90
36442;DHT22;64346;50.820;16.274;2022-10-16T15:56:37;18.10;99.90
36442;DHT22;64346;50.820;16.274;2022-10-16T15:59:04;18.10;99.90
36442;DHT22;64346;50.820;16.274;2022-10-16T16:01:33;18.00;99.90
36442;DHT22;64346;50.820;16.274;2022-10-16T16:04:01;18.00;99.90
36442;DHT22;64346;50.820;16.274;2022-10-16T16:06:43;17.90;99.90
36442;DHT22;64346;50.820;16.274;2022-10-16T16:09:12;17.90;99.90
36442;DHT22;64346;50.820;16.274;2022-10-16T16:11:39;17.80;99.90
36442;DHT22;64346;50.820;16.274;2022-10-16T16:14:07;17.80;99.90
36442;DHT22;64346;50.820;16.274;2022-10-16T16:16:37;17.70;99.90
36442;DHT22;64346;50.820;16.274;2022-10-16T16:19:05;17.70;99.90
36442;DHT22;64346;50.820;16.274;2022-10-16T16:21:38;17.70;99.90
36442;DHT22;64346;50.820;16.274;2022-10-16T16:24:05;17.70;99.90
36442;DHT22;64346;50.820;16.274;2022-10-16T16:26:32;17.60;99.90
36442;DHT22;64346;50.820;16.274;2022-10-16T16:29:00;17.50;99.90
36442;DHT22;64346;50.820;16.274;2022-10-16T16:31:28;17.50;99.90
36442;DHT22;64346;50.820;16.274;2022-10-16T16:33:56;17.40;99.90
36442;DHT22;64346;50.820;16.274;2022-10-16T16:36:26;17.40;99.90
36442;DHT22;64346;50.820;16.274;2022-10-16T16:38:54;17.30;99.90
36442;DHT22;64346;50.820;16.274;2022-10-16T16:41:23;17.30;99.90
36442;DHT22;64346;50.820;16.274;2022-10-16T16:43:52;17.30;99.90
36442;DHT22;64346;50.820;16.274;2022-10-16T16:46:22;17.20;99.90
36442;DHT22;64346;50.820;16.274;2022-10-16T16:48:49;17.20;99.90
36442;DHT22;64346;50.820;16.274;2022-10-16T16:51:18;17.20;99.90
36442;DHT22;64346;50.820;16.274;2022-10-16T16:53:48;17.20;99.90
36442;DHT22;64346;50.820;16.274;2022-10-16T16:56:16;17.20;99.90
36442;DHT22;64346;50.820;16.274;2022-10-16T16:58:49;17.20;99.90
36442;DHT22;64346;50.820;16.274;2022-10-16T17:01:17;17.20;99.90
36442;DHT22;64346;50.820;16.274;2022-10-16T17:03:49;17.20;99.90
36442;DHT22;64346;50.820;16.274;2022-10-16T17:06:19;17.20;99.90
36442;DHT22;64346;50.820;16.274;2022-10-16T17:08:52;17.20;99.90
36442;DHT22;64346;50.820;16.274;2022-10-16T17:11:25;17.20;99.90
36442;DHT22;64346;50.820;16.274;2022-10-16T17:13:56;17.20;99.90
36442;DHT22;64346;50.820;16.274;2022-10-16T17:16:27;17.20;99.90
36442;DHT22;64346;50.820;16.274;2022-10-16T17:18:59;17.30;99.90
36442;DHT22;64346;50.820;16.274;2022-10-16T17:21:26;17.30;99.90
36442;DHT22;64346;50.820;16.274;2022-10-16T17:23:56;17.30;99.90
36442;DHT22;64346;50.820;16.274;2022-10-16T17:26:24;17.40;99.90
36442;DHT22;64346;50.820;16.274;2022-10-16T17:28:56;17.40;99.90
36442;DHT22;64346;50.820;16.274;2022-10-16T17:31:31;17.40;99.90
36442;DHT22;64346;50.820;16.274;2022-10-16T17:34:02;17.40;99.90
36442;DHT22;64346;50.820;16.274;2022-10-16T17:36:32;17.40;99.90
36442;DHT22;64346;50.820;16.274;2022-10-16T17:39:07;17.30;99.90
36442;DHT22;64346;50.820;16.274;2022-10-16T17:41:35;17.30;99.90
36442;DHT22;64346;50.820;16.274;2022-10-16T17:44:06;17.30;99.90
36442;DHT22;64346;50.820;16.274;2022-10-16T17:46:33;17.30;99.90
36442;DHT22;64346;50.820;16.274;2022-10-16T17:49:11;17.20;99.90
36442;DHT22;64346;50.820;16.274;2022-10-16T17:51:38;17.30;99.90
36442;DHT22;64346;50.820;16.274;2022-10-16T17:54:06;17.20;99.90
36442;DHT22;64346;50.820;16.274;2022-10-16T17:56:34;17.20;99.90
36442;DHT22;64346;50.820;16.274;2022-10-16T17:59:02;17.20;99.90
36442;DHT22;64346;50.820;16.274;2022-10-16T18:01:32;17.20;99.90
36442;DHT22;64346;50.820;16.274;2022-10-16T18:04:03;17.20;99.90
36442;DHT22;64346;50.820;16.274;2022-10-16T18:06:31;17.20;99.90
36442;DHT22;64346;50.820;16.274;2022-10-16T18:09:00;17.20;99.90
36442;DHT22;64346;50.820;16.274;2022-10-16T18:11:28;17.10;99.90
36442;DHT22;64346;50.820;16.274;2022-10-16T18:13:57;17.10;99.90
36442;DHT22;64346;50.820;16.274;2022-10-16T18:16:27;17.00;99.90
36442;DHT22;64346;50.820;16.274;2022-10-16T18:18:55;16.90;99.90
36442;DHT22;64346;50.820;16.274;2022-10-16T18:21:23;16.90;99.90
36442;DHT22;64346;50.820;16.274;2022-10-16T18:23:51;16.80;99.90